sensor_id;sensor_type;location;lat;lon;timestamp;pressure;altitude;pressure_sealevel;temperature;humidity
74542;BME280;63015;45.378;20.360;2024-02-16T00:00:50;101488.88;;;3.35;72.72
74542;BME280;63015;45.378;20.360;2024-02-16T00:02:50;101496.72;;;3.38;71.59
74542;BME280;63015;45.378;20.360;2024-02-16T00:04:51;101480.72;;;3.26;72.16
74542;BME280;63015;45.378;20.360;2024-02-16T00:06:51;101496.59;;;3.35;72.33
74542;BME280;63015;45.378;20.360;2024-02-16T00:08:52;101503.31;;;3.32;73.41
74542;BME280;63015;45.378;20.360;2024-02-16T00:10:52;101497.53;;;3.37;72.63
74542;BME280;63015;45.378;20.360;2024-02-16T00:12:53;101484.88;;;3.42;71.45
74542;BME280;63015;45.378;20.360;2024-02-16T00:14:53;101494.72;;;3.51;71.68
74542;BME280;63015;45.378;20.360;2024-02-16T00:16:54;101492.00;;;3.48;71.66
74542;BME280;63015;45.378;20.360;2024-02-16T00:18:54;101498.78;;;3.45;71.32
74542;BME280;63015;45.378;20.360;2024-02-16T00:20:54;101496.41;;;3.50;71.85
74542;BME280;63015;45.378;20.360;2024-02-16T00:22:55;101501.44;;;3.47;72.02
74542;BME280;63015;45.378;20.360;2024-02-16T00:24:55;101505.50;;;3.42;72.07
74542;BME280;63015;45.378;20.360;2024-02-16T00:26:56;101503.72;;;3.41;72.33
74542;BME280;63015;45.378;20.360;2024-02-16T00:28:56;101503.72;;;3.41;71.07
74542;BME280;63015;45.378;20.360;2024-02-16T00:30:58;101503.88;;;3.44;71.12
74542;BME280;63015;45.378;20.360;2024-02-16T00:32:58;101513.97;;;3.39;71.58
74542;BME280;63015;45.378;20.360;2024-02-16T00:34:59;101505.94;;;3.33;72.22
74542;BME280;63015;45.378;20.360;2024-02-16T00:36:59;101498.75;;;3.26;72.31
74542;BME280;63015;45.378;20.360;2024-02-16T00:39:00;101513.53;;;3.30;72.10
74542;BME280;63015;45.378;20.360;2024-02-16T00:41:00;101499.56;;;3.25;72.52
74542;BME280;63015;45.378;20.360;2024-02-16T00:43:00;101505.41;;;3.21;71.98
74542;BME280;63015;45.378;20.360;2024-02-16T00:45:01;101504.84;;;3.28;71.80
74542;BME280;63015;45.378;20.360;2024-02-16T00:47:01;101496.94;;;3.23;71.01
74542;BME280;63015;45.378;20.360;2024-02-16T00:49:02;101497.00;;;3.25;71.53
74542;BME280;63015;45.378;20.360;2024-02-16T00:51:02;101500.09;;;3.18;72.26
74542;BME280;63015;45.378;20.360;2024-02-16T00:53:03;101492.22;;;3.15;72.12
74542;BME280;63015;45.378;20.360;2024-02-16T00:55:04;101493.31;;;3.20;71.57
74542;BME280;63015;45.378;20.360;2024-02-16T00:57:05;101487.75;;;3.10;72.31
74542;BME280;63015;45.378;20.360;2024-02-16T00:59:05;101497.22;;;3.11;72.14
74542;BME280;63015;45.378;20.360;2024-02-16T01:01:09;101492.91;;;3.10;72.65
74542;BME280;63015;45.378;20.360;2024-02-16T01:03:11;101483.84;;;3.01;73.39
74542;BME280;63015;45.378;20.360;2024-02-16T01:05:13;101474.91;;;2.92;73.61
74542;BME280;63015;45.378;20.360;2024-02-16T01:07:13;101484.22;;;2.90;73.85
74542;BME280;63015;45.378;20.360;2024-02-16T01:09:14;101477.25;;;2.88;72.91
74542;BME280;63015;45.378;20.360;2024-02-16T01:11:15;101481.41;;;2.86;73.62
74542;BME280;63015;45.378;20.360;2024-02-16T01:13:16;101483.13;;;2.85;73.47
74542;BME280;63015;45.378;20.360;2024-02-16T01:15:16;101479.75;;;2.86;73.41
74542;BME280;63015;45.378;20.360;2024-02-16T01:17:17;101471.66;;;2.78;73.25
74542;BME280;63015;45.378;20.360;2024-02-16T01:19:17;101478.66;;;2.81;73.22
74542;BME280;63015;45.378;20.360;2024-02-16T01:21:18;101461.88;;;2.71;74.27
74542;BME280;63015;45.378;20.360;2024-02-16T01:23:18;101468.78;;;2.72;74.08
74542;BME280;63015;45.378;20.360;2024-02-16T01:25:19;101470.63;;;2.75;73.80
74542;BME280;63015;45.378;20.360;2024-02-16T01:27:19;101468.66;;;2.69;74.06
74542;BME280;63015;45.378;20.360;2024-02-16T01:29:21;101460.19;;;2.72;73.26
74542;BME280;63015;45.378;20.360;2024-02-16T01:31:22;101464.38;;;2.70;73.79
74542;BME280;63015;45.378;20.360;2024-02-16T01:33:22;101465.25;;;2.70;73.84
74542;BME280;63015;45.378;20.360;2024-02-16T01:35:23;101461.88;;;2.71;73.48
74542;BME280;63015;45.378;20.360;2024-02-16T01:37:23;101461.81;;;2.70;74.13
74542;BME280;63015;45.378;20.360;2024-02-16T01:39:24;101459.34;;;2.73;73.15
74542;BME280;63015;45.378;20.360;2024-02-16T01:41:25;101454.94;;;2.70;72.53
74542;BME280;63015;45.378;20.360;2024-02-16T01:43:25;101458.34;;;2.69;73.15
74542;BME280;63015;45.378;20.360;2024-02-16T01:45:26;101445.09;;;2.61;73.20
74542;BME280;63015;45.378;20.360;2024-02-16T01:47:27;101435.63;;;2.60;72.70
74542;BME280;63015;45.378;20.360;2024-02-16T01:49:28;101448.63;;;2.63;73.68
74542;BME280;63015;45.378;20.360;2024-02-16T01:51:28;101439.75;;;2.57;74.32
74542;BME280;63015;45.378;20.360;2024-02-16T01:53:29;101443.06;;;2.54;73.98
74542;BME280;63015;45.378;20.360;2024-02-16T01:55:30;101444.09;;;2.58;73.45
74542;BME280;63015;45.378;20.360;2024-02-16T01:57:31;101437.31;;;2.60;72.97
74542;BME280;63015;45.378;20.360;2024-02-16T01:59:31;101431.34;;;2.61;72.60
74542;BME280;63015;45.378;20.360;2024-02-16T02:01:33;101433.06;;;2.60;73.98
74542;BME280;63015;45.378;20.360;2024-02-16T02:03:34;101420.03;;;2.57;73.41
74542;BME280;63015;45.378;20.360;2024-02-16T02:05:46;101421.88;;;2.60;72.86
74542;BME280;63015;45.378;20.360;2024-02-16T02:07:46;101425.34;;;2.60;73.00
74542;BME280;63015;45.378;20.360;2024-02-16T02:09:47;101422.09;;;2.65;72.85
74542;BME280;63015;45.378;20.360;2024-02-16T02:11:47;101424.44;;;2.60;73.30
74542;BME280;63015;45.378;20.360;2024-02-16T02:13:48;101421.72;;;2.57;73.29
74542;BME280;63015;45.378;20.360;2024-02-16T02:15:48;101413.66;;;2.49;74.42
74542;BME280;63015;45.378;20.360;2024-02-16T02:17:49;101413.72;;;2.51;73.88
74542;BME280;63015;45.378;20.360;2024-02-16T02:19:49;101419.66;;;2.50;74.46
74542;BME280;63015;45.378;20.360;2024-02-16T02:21:50;101411.28;;;2.54;73.83
74542;BME280;63015;45.378;20.360;2024-02-16T02:23:50;101419.22;;;2.58;73.27
74542;BME280;63015;45.378;20.360;2024-02-16T02:25:51;101405.13;;;2.50;74.13
74542;BME280;63015;45.378;20.360;2024-02-16T02:27:51;101412.91;;;2.52;74.09
74542;BME280;63015;45.378;20.360;2024-02-16T02:29:52;101415.78;;;2.58;73.83
74542;BME280;63015;45.378;20.360;2024-02-16T02:31:53;101408.56;;;2.51;73.56
74542;BME280;63015;45.378;20.360;2024-02-16T02:33:54;101415.19;;;2.45;73.87
74542;BME280;63015;45.378;20.360;2024-02-16T02:35:54;101415.97;;;2.44;74.59
74542;BME280;63015;45.378;20.360;2024-02-16T02:37:55;101416.78;;;2.43;74.61
74542;BME280;63015;45.378;20.360;2024-02-16T02:39:55;101418.56;;;2.44;73.81
74542;BME280;63015;45.378;20.360;2024-02-16T02:41:57;101406.78;;;2.32;74.29
74542;BME280;63015;45.378;20.360;2024-02-16T02:43:58;101434.03;;;2.28;74.21
74542;BME280;63015;45.378;20.360;2024-02-16T02:45:58;101441.34;;;2.37;74.18
74542;BME280;63015;45.378;20.360;2024-02-16T02:47:59;101437.16;;;2.39;73.87
74542;BME280;63015;45.378;20.360;2024-02-16T02:49:59;101439.72;;;2.39;73.79
74542;BME280;63015;45.378;20.360;2024-02-16T02:51:59;101430.56;;;2.44;73.26
74542;BME280;63015;45.378;20.360;2024-02-16T02:54:00;101432.47;;;2.48;73.39
74542;BME280;63015;45.378;20.360;2024-02-16T02:56:01;101440.97;;;2.47;73.48
74542;BME280;63015;45.378;20.360;2024-02-16T02:58:01;101446.19;;;2.49;73.16
74542;BME280;63015;45.378;20.360;2024-02-16T03:00:06;101447.66;;;2.43;73.25
74542;BME280;63015;45.378;20.360;2024-02-16T03:02:10;101448.56;;;2.44;73.39
74542;BME280;63015;45.378;20.360;2024-02-16T03:04:11;101446.66;;;2.40;73.32
74542;BME280;63015;45.378;20.360;2024-02-16T03:06:12;101449.22;;;2.40;73.67
74542;BME280;63015;45.378;20.360;2024-02-16T03:08:12;101441.50;;;2.40;73.57
74542;BME280;63015;45.378;20.360;2024-02-16T03:10:13;101448.19;;;2.36;73.73
74542;BME280;63015;45.378;20.360;2024-02-16T03:12:15;101439.50;;;2.34;73.91
74542;BME280;63015;45.378;20.360;2024-02-16T03:14:17;101450.75;;;2.36;73.74
74542;BME280;63015;45.378;20.360;2024-02-16T03:16:17;101441.56;;;2.41;73.31
74542;BME280;63015;45.378;20.360;2024-02-16T03:18:18;101446.56;;;2.38;73.69
74542;BME280;63015;45.378;20.360;2024-02-16T03:20:19;101442.81;;;2.32;73.27
74542;BME280;63015;45.378;20.360;2024-02-16T03:22:20;101445.25;;;2.28;73.59
74542;BME280;63015;45.378;20.360;2024-02-16T03:24:20;101439.38;;;2.31;73.39
74542;BME280;63015;45.378;20.360;2024-02-16T03:26:21;101429.34;;;2.19;73.72
74542;BME280;63015;45.378;20.360;2024-02-16T03:28:21;101440.59;;;2.21;73.87
74542;BME280;63015;45.378;20.360;2024-02-16T03:30:22;101440.88;;;2.09;73.96
74542;BME280;63015;45.378;20.360;2024-02-16T03:32:22;101435.59;;;2.06;74.44
74542;BME280;63015;45.378;20.360;2024-02-16T03:34:23;101434.28;;;1.98;74.35
74542;BME280;63015;45.378;20.360;2024-02-16T03:36:24;101443.53;;;1.94;74.92
74542;BME280;63015;45.378;20.360;2024-02-16T03:38:25;101435.81;;;1.94;74.70
74542;BME280;63015;45.378;20.360;2024-02-16T03:40:25;101426.59;;;1.98;74.19
74542;BME280;63015;45.378;20.360;2024-02-16T03:42:26;101445.63;;;2.02;74.30
74542;BME280;63015;45.378;20.360;2024-02-16T03:44:26;101440.56;;;2.03;74.14
74542;BME280;63015;45.378;20.360;2024-02-16T03:46:27;101438.06;;;2.05;74.95
74542;BME280;63015;45.378;20.360;2024-02-16T03:48:27;101447.72;;;2.09;74.98
74542;BME280;63015;45.378;20.360;2024-02-16T03:50:28;101439.53;;;2.18;74.61
74542;BME280;63015;45.378;20.360;2024-02-16T03:52:28;101429.53;;;2.06;74.81
74542;BME280;63015;45.378;20.360;2024-02-16T03:54:29;101443.56;;;2.12;74.56
74542;BME280;63015;45.378;20.360;2024-02-16T03:56:30;101436.38;;;2.05;74.85
74542;BME280;63015;45.378;20.360;2024-02-16T03:58:31;101433.63;;;2.02;74.77
74542;BME280;63015;45.378;20.360;2024-02-16T04:00:31;101435.09;;;1.97;74.96
74542;BME280;63015;45.378;20.360;2024-02-16T04:02:32;101425.47;;;1.93;74.89
74542;BME280;63015;45.378;20.360;2024-02-16T04:04:33;101435.66;;;2.08;74.66
74542;BME280;63015;45.378;20.360;2024-02-16T04:06:33;101448.00;;;2.15;74.53
74542;BME280;63015;45.378;20.360;2024-02-16T04:08:34;101437.69;;;2.15;74.29
74542;BME280;63015;45.378;20.360;2024-02-16T04:10:34;101439.47;;;2.16;74.56
74542;BME280;63015;45.378;20.360;2024-02-16T04:12:35;101444.94;;;2.22;74.00
74542;BME280;63015;45.378;20.360;2024-02-16T04:14:36;101446.03;;;2.27;73.40
74542;BME280;63015;45.378;20.360;2024-02-16T04:16:37;101450.38;;;2.28;73.21
74542;BME280;63015;45.378;20.360;2024-02-16T04:18:37;101456.41;;;2.29;72.61
74542;BME280;63015;45.378;20.360;2024-02-16T04:20:37;101450.53;;;2.32;72.62
74542;BME280;63015;45.378;20.360;2024-02-16T04:22:38;101454.94;;;2.34;72.07
74542;BME280;63015;45.378;20.360;2024-02-16T04:24:38;101448.13;;;2.35;72.08
74542;BME280;63015;45.378;20.360;2024-02-16T04:26:39;101455.25;;;2.40;71.50
74542;BME280;63015;45.378;20.360;2024-02-16T04:28:39;101452.75;;;2.42;72.12
74542;BME280;63015;45.378;20.360;2024-02-16T04:30:40;101459.03;;;2.30;72.24
74542;BME280;63015;45.378;20.360;2024-02-16T04:32:40;101457.44;;;2.33;72.29
74542;BME280;63015;45.378;20.360;2024-02-16T04:34:41;101452.72;;;2.24;72.58
74542;BME280;63015;45.378;20.360;2024-02-16T04:36:41;101456.41;;;2.29;72.28
74542;BME280;63015;45.378;20.360;2024-02-16T04:38:42;101456.47;;;2.30;72.20
74542;BME280;63015;45.378;20.360;2024-02-16T04:40:42;101460.25;;;2.37;71.77
74542;BME280;63015;45.378;20.360;2024-02-16T04:42:43;101445.31;;;2.30;71.74
74542;BME280;63015;45.378;20.360;2024-02-16T04:44:43;101465.22;;;2.34;71.74
74542;BME280;63015;45.378;20.360;2024-02-16T04:46:44;101459.78;;;2.28;71.73
74542;BME280;63015;45.378;20.360;2024-02-16T04:48:44;101459.50;;;2.22;71.73
74542;BME280;63015;45.378;20.360;2024-02-16T04:50:45;101467.94;;;2.19;72.04
74542;BME280;63015;45.378;20.360;2024-02-16T04:52:45;101469.25;;;1.94;72.87
74542;BME280;63015;45.378;20.360;2024-02-16T04:54:46;101464.28;;;1.97;72.65
74542;BME280;63015;45.378;20.360;2024-02-16T04:56:46;101471.34;;;1.85;73.23
74542;BME280;63015;45.378;20.360;2024-02-16T04:58:47;101463.63;;;1.85;73.08
74542;BME280;63015;45.378;20.360;2024-02-16T05:00:47;101454.59;;;1.75;73.09
74542;BME280;63015;45.378;20.360;2024-02-16T05:02:48;101470.97;;;1.77;73.08
74542;BME280;63015;45.378;20.360;2024-02-16T05:04:48;101468.31;;;1.76;73.25
74542;BME280;63015;45.378;20.360;2024-02-16T05:06:49;101455.41;;;1.74;73.43
74542;BME280;63015;45.378;20.360;2024-02-16T05:08:52;101456.03;;;1.70;73.31
74542;BME280;63015;45.378;20.360;2024-02-16T05:10:52;101468.63;;;1.66;73.64
74542;BME280;63015;45.378;20.360;2024-02-16T05:12:52;101460.28;;;1.70;73.83
74542;BME280;63015;45.378;20.360;2024-02-16T05:14:53;101458.50;;;1.69;73.63
74542;BME280;63015;45.378;20.360;2024-02-16T05:16:53;101464.16;;;1.61;73.59
74542;BME280;63015;45.378;20.360;2024-02-16T05:18:58;101461.66;;;1.63;73.47
74542;BME280;63015;45.378;20.360;2024-02-16T05:20:58;101461.84;;;1.50;73.93
74542;BME280;63015;45.378;20.360;2024-02-16T05:22:58;101464.41;;;1.50;74.34
74542;BME280;63015;45.378;20.360;2024-02-16T05:24:59;101469.28;;;1.45;73.97
74542;BME280;63015;45.378;20.360;2024-02-16T05:26:59;101468.41;;;1.44;74.14
74542;BME280;63015;45.378;20.360;2024-02-16T05:29:00;101463.28;;;1.44;74.26
74542;BME280;63015;45.378;20.360;2024-02-16T05:31:16;101453.22;;;1.33;74.65
74542;BME280;63015;45.378;20.360;2024-02-16T05:33:18;101456.81;;;1.36;74.84
74542;BME280;63015;45.378;20.360;2024-02-16T05:35:19;101457.47;;;1.32;74.60
74542;BME280;63015;45.378;20.360;2024-02-16T05:37:19;101471.38;;;1.36;74.90
74542;BME280;63015;45.378;20.360;2024-02-16T05:39:20;101466.22;;;1.36;74.77
74542;BME280;63015;45.378;20.360;2024-02-16T05:41:26;101464.91;;;1.27;75.26
74542;BME280;63015;45.378;20.360;2024-02-16T05:43:26;101477.59;;;1.24;75.17
74542;BME280;63015;45.378;20.360;2024-02-16T05:45:27;101469.75;;;1.21;75.98
74542;BME280;63015;45.378;20.360;2024-02-16T05:47:28;101467.78;;;1.17;76.26
74542;BME280;63015;45.378;20.360;2024-02-16T05:49:28;101467.56;;;1.12;76.52
74542;BME280;63015;45.378;20.360;2024-02-16T05:51:34;101469.94;;;1.09;76.72
74542;BME280;63015;45.378;20.360;2024-02-16T05:53:35;101476.31;;;1.16;77.36
74542;BME280;63015;45.378;20.360;2024-02-16T05:55:36;101478.06;;;1.17;76.94
74542;BME280;63015;45.378;20.360;2024-02-16T05:57:37;101485.53;;;1.12;77.58
74542;BME280;63015;45.378;20.360;2024-02-16T05:59:38;101476.13;;;1.13;77.73
74542;BME280;63015;45.378;20.360;2024-02-16T06:01:39;101470.47;;;1.19;77.66
74542;BME280;63015;45.378;20.360;2024-02-16T06:03:41;101477.53;;;1.23;78.00
74542;BME280;63015;45.378;20.360;2024-02-16T06:05:42;101462.13;;;1.23;77.94
74542;BME280;63015;45.378;20.360;2024-02-16T06:07:46;101481.75;;;1.22;78.13
74542;BME280;63015;45.378;20.360;2024-02-16T06:09:46;101482.34;;;1.33;77.79
74542;BME280;63015;45.378;20.360;2024-02-16T06:11:47;101484.84;;;1.31;78.00
74542;BME280;63015;45.378;20.360;2024-02-16T06:13:48;101487.66;;;1.36;77.80
74542;BME280;63015;45.378;20.360;2024-02-16T06:15:50;101487.66;;;1.36;77.54
74542;BME280;63015;45.378;20.360;2024-02-16T06:17:50;101485.72;;;1.32;77.21
74542;BME280;63015;45.378;20.360;2024-02-16T06:19:52;101496.34;;;1.38;76.95
74542;BME280;63015;45.378;20.360;2024-02-16T06:21:54;101492.13;;;1.40;76.96
74542;BME280;63015;45.378;20.360;2024-02-16T06:23:54;101496.47;;;1.41;76.58
74542;BME280;63015;45.378;20.360;2024-02-16T06:25:55;101492.25;;;1.42;76.19
74542;BME280;63015;45.378;20.360;2024-02-16T06:27:55;101500.91;;;1.44;75.99
74542;BME280;63015;45.378;20.360;2024-02-16T06:29:56;101497.69;;;1.48;75.86
74542;BME280;63015;45.378;20.360;2024-02-16T06:31:56;101495.63;;;1.57;75.46
74542;BME280;63015;45.378;20.360;2024-02-16T06:33:57;101495.94;;;1.63;75.33
74542;BME280;63015;45.378;20.360;2024-02-16T06:35:57;101502.38;;;1.72;74.93
74542;BME280;63015;45.378;20.360;2024-02-16T06:37:58;101497.16;;;1.70;74.85
74542;BME280;63015;45.378;20.360;2024-02-16T06:39:59;101490.16;;;1.84;73.81
74542;BME280;63015;45.378;20.360;2024-02-16T06:41:59;101508.00;;;1.97;73.37
74542;BME280;63015;45.378;20.360;2024-02-16T06:44:00;101509.19;;;2.04;72.68
74542;BME280;63015;45.378;20.360;2024-02-16T06:46:01;101502.97;;;2.17;72.47
74542;BME280;63015;45.378;20.360;2024-02-16T06:48:01;101500.47;;;2.19;72.29
74542;BME280;63015;45.378;20.360;2024-02-16T06:50:02;101509.19;;;2.39;71.82
74542;BME280;63015;45.378;20.360;2024-02-16T06:52:02;101513.41;;;2.55;71.04
74542;BME280;63015;45.378;20.360;2024-02-16T06:54:04;101513.41;;;2.73;70.61
74542;BME280;63015;45.378;20.360;2024-02-16T06:56:05;101515.19;;;2.92;70.38
74542;BME280;63015;45.378;20.360;2024-02-16T06:58:05;101514.81;;;3.02;70.08
74542;BME280;63015;45.378;20.360;2024-02-16T07:00:07;101513.63;;;3.13;68.92
74542;BME280;63015;45.378;20.360;2024-02-16T07:02:09;101512.88;;;3.34;68.72
74542;BME280;63015;45.378;20.360;2024-02-16T07:04:11;101520.34;;;3.48;68.41
74542;BME280;63015;45.378;20.360;2024-02-16T07:06:12;101517.47;;;3.59;67.61
74542;BME280;63015;45.378;20.360;2024-02-16T07:08:13;101512.16;;;3.76;67.67
74542;BME280;63015;45.378;20.360;2024-02-16T07:10:14;101521.38;;;4.10;66.89
74542;BME280;63015;45.378;20.360;2024-02-16T07:12:15;101515.03;;;4.23;66.47
74542;BME280;63015;45.378;20.360;2024-02-16T07:14:16;101505.66;;;4.25;66.53
74542;BME280;63015;45.378;20.360;2024-02-16T07:16:17;101515.53;;;4.55;65.64
74542;BME280;63015;45.378;20.360;2024-02-16T07:18:19;101516.59;;;4.60;64.85
74542;BME280;63015;45.378;20.360;2024-02-16T07:20:19;101513.97;;;4.81;64.65
74542;BME280;63015;45.378;20.360;2024-02-16T07:22:20;101520.25;;;5.09;63.92
74542;BME280;63015;45.378;20.360;2024-02-16T07:24:21;101514.59;;;5.42;63.53
74542;BME280;63015;45.378;20.360;2024-02-16T07:26:21;101517.66;;;5.54;62.87
74542;BME280;63015;45.378;20.360;2024-02-16T07:28:22;101514.69;;;5.68;62.12
74542;BME280;63015;45.378;20.360;2024-02-16T07:30:23;101512.94;;;5.91;61.78
74542;BME280;63015;45.378;20.360;2024-02-16T07:32:24;101521.00;;;5.99;61.76
74542;BME280;63015;45.378;20.360;2024-02-16T07:34:24;101512.47;;;6.01;61.31
74542;BME280;63015;45.378;20.360;2024-02-16T07:36:25;101518.03;;;6.38;60.97
74542;BME280;63015;45.378;20.360;2024-02-16T07:38:25;101515.84;;;6.50;60.36
74542;BME280;63015;45.378;20.360;2024-02-16T07:40:28;101512.16;;;6.69;60.05
74542;BME280;63015;45.378;20.360;2024-02-16T07:42:28;101515.97;;;6.81;59.55
74542;BME280;63015;45.378;20.360;2024-02-16T07:44:28;101513.78;;;6.93;59.71
74542;BME280;63015;45.378;20.360;2024-02-16T07:46:29;101514.66;;;7.22;59.59
74542;BME280;63015;45.378;20.360;2024-02-16T07:48:29;101523.53;;;7.29;59.11
74542;BME280;63015;45.378;20.360;2024-02-16T07:50:31;101522.78;;;7.33;58.65
74542;BME280;63015;45.378;20.360;2024-02-16T07:52:31;101525.13;;;7.54;58.30
74542;BME280;63015;45.378;20.360;2024-02-16T07:54:32;101503.50;;;7.54;58.00
74542;BME280;63015;45.378;20.360;2024-02-16T07:56:32;101508.38;;;7.73;57.86
74542;BME280;63015;45.378;20.360;2024-02-16T07:58:33;101525.19;;;7.88;57.24
74542;BME280;63015;45.378;20.360;2024-02-16T08:00:33;101518.13;;;8.14;56.86
74542;BME280;63015;45.378;20.360;2024-02-16T08:02:34;101524.59;;;8.30;56.50
74542;BME280;63015;45.378;20.360;2024-02-16T08:04:35;101529.00;;;8.33;56.48
74542;BME280;63015;45.378;20.360;2024-02-16T08:06:35;101521.94;;;8.27;55.86
74542;BME280;63015;45.378;20.360;2024-02-16T08:08:36;101528.84;;;8.60;55.48
74542;BME280;63015;45.378;20.360;2024-02-16T08:10:36;101525.72;;;8.74;55.39
74542;BME280;63015;45.378;20.360;2024-02-16T08:12:37;101520.81;;;8.86;55.47
74542;BME280;63015;45.378;20.360;2024-02-16T08:14:39;101505.66;;;9.04;54.10
74542;BME280;63015;45.378;20.360;2024-02-16T08:16:42;101521.47;;;9.14;53.99
74542;BME280;63015;45.378;20.360;2024-02-16T08:18:43;101516.78;;;9.38;53.53
74542;BME280;63015;45.378;20.360;2024-02-16T08:20:44;101517.44;;;9.71;53.00
74542;BME280;63015;45.378;20.360;2024-02-16T08:22:45;101505.38;;;9.75;52.03
74542;BME280;63015;45.378;20.360;2024-02-16T08:24:46;101522.41;;;10.01;51.65
74542;BME280;63015;45.378;20.360;2024-02-16T08:26:46;101505.66;;;9.88;51.43
74542;BME280;63015;45.378;20.360;2024-02-16T08:28:47;101514.00;;;10.16;51.32
74542;BME280;63015;45.378;20.360;2024-02-16T08:30:47;101515.13;;;10.32;50.66
74542;BME280;63015;45.378;20.360;2024-02-16T08:32:48;101509.63;;;10.64;50.19
74542;BME280;63015;45.378;20.360;2024-02-16T08:34:48;101504.75;;;10.84;49.96
74542;BME280;63015;45.378;20.360;2024-02-16T08:36:50;101512.34;;;10.71;49.57
74542;BME280;63015;45.378;20.360;2024-02-16T08:38:50;101516.03;;;10.83;49.04
74542;BME280;63015;45.378;20.360;2024-02-16T08:40:50;101511.03;;;10.99;49.15
74542;BME280;63015;45.378;20.360;2024-02-16T08:42:52;101506.66;;;10.98;48.41
74542;BME280;63015;45.378;20.360;2024-02-16T08:44:52;101512.41;;;11.35;48.15
74542;BME280;63015;45.378;20.360;2024-02-16T08:46:53;101513.66;;;11.68;47.52
74542;BME280;63015;45.378;20.360;2024-02-16T08:48:55;101517.34;;;11.84;47.10
74542;BME280;63015;45.378;20.360;2024-02-16T08:50:55;101515.09;;;12.15;46.89
74542;BME280;63015;45.378;20.360;2024-02-16T08:52:56;101510.66;;;12.08;46.49
74542;BME280;63015;45.378;20.360;2024-02-16T08:54:56;101515.19;;;12.23;45.74
74542;BME280;63015;45.378;20.360;2024-02-16T08:56:57;101496.19;;;12.41;46.03
74542;BME280;63015;45.378;20.360;2024-02-16T08:58:57;101506.81;;;12.64;45.72
74542;BME280;63015;45.378;20.360;2024-02-16T09:00:58;101500.91;;;12.94;45.54
74542;BME280;63015;45.378;20.360;2024-02-16T09:02:58;101512.19;;;12.81;44.44
74542;BME280;63015;45.378;20.360;2024-02-16T09:04:59;101511.28;;;12.77;44.31
74542;BME280;63015;45.378;20.360;2024-02-16T09:06:59;101511.28;;;12.79;44.46
74542;BME280;63015;45.378;20.360;2024-02-16T09:09:00;101514.78;;;12.82;43.84
74542;BME280;63015;45.378;20.360;2024-02-16T09:11:01;101497.50;;;13.02;43.06
74542;BME280;63015;45.378;20.360;2024-02-16T09:13:05;101498.53;;;13.30;42.53
74542;BME280;63015;45.378;20.360;2024-02-16T09:15:06;101502.84;;;13.20;42.55
74542;BME280;63015;45.378;20.360;2024-02-16T09:17:06;101510.72;;;13.23;41.75
74542;BME280;63015;45.378;20.360;2024-02-16T09:19:07;101510.81;;;13.40;42.08
74542;BME280;63015;45.378;20.360;2024-02-16T09:21:08;101510.03;;;13.54;41.45
74542;BME280;63015;45.378;20.360;2024-02-16T09:23:08;101517.06;;;13.78;41.06
74542;BME280;63015;45.378;20.360;2024-02-16T09:25:09;101512.66;;;13.68;41.03
74542;BME280;63015;45.378;20.360;2024-02-16T09:27:10;101506.63;;;13.93;40.01
74542;BME280;63015;45.378;20.360;2024-02-16T09:29:13;101504.03;;;14.01;40.32
74542;BME280;63015;45.378;20.360;2024-02-16T09:31:14;101515.44;;;14.19;39.90
74542;BME280;63015;45.378;20.360;2024-02-16T09:33:15;101507.59;;;14.23;39.58
74542;BME280;63015;45.378;20.360;2024-02-16T09:35:15;101506.69;;;14.07;39.44
74542;BME280;63015;45.378;20.360;2024-02-16T09:37:16;101512.84;;;14.34;40.37
74542;BME280;63015;45.378;20.360;2024-02-16T09:39:17;101509.28;;;13.95;39.43
74542;BME280;63015;45.378;20.360;2024-02-16T09:41:18;101511.88;;;13.82;38.69
74542;BME280;63015;45.378;20.360;2024-02-16T09:43:28;101503.19;;;14.14;38.58
74542;BME280;63015;45.378;20.360;2024-02-16T09:45:30;101504.06;;;14.32;38.27
74542;BME280;63015;45.378;20.360;2024-02-16T09:47:32;101503.25;;;14.69;38.76
74542;BME280;63015;45.378;20.360;2024-02-16T09:49:35;101505.84;;;14.47;38.30
74542;BME280;63015;45.378;20.360;2024-02-16T09:51:36;101492.75;;;14.86;37.94
74542;BME280;63015;45.378;20.360;2024-02-16T09:53:37;101491.81;;;15.07;36.51
74542;BME280;63015;45.378;20.360;2024-02-16T09:55:37;101483.91;;;15.15;36.48
74542;BME280;63015;45.378;20.360;2024-02-16T09:57:39;101503.16;;;15.21;36.88
74542;BME280;63015;45.378;20.360;2024-02-16T09:59:40;101498.75;;;15.34;36.98
74542;BME280;63015;45.378;20.360;2024-02-16T10:01:40;101486.47;;;15.38;36.89
74542;BME280;63015;45.378;20.360;2024-02-16T10:03:43;101490.00;;;15.37;36.61
74542;BME280;63015;45.378;20.360;2024-02-16T10:05:43;101487.34;;;15.40;36.54
74542;BME280;63015;45.378;20.360;2024-02-16T10:07:44;101476.00;;;15.33;35.66
74542;BME280;63015;45.378;20.360;2024-02-16T10:09:44;101489.16;;;15.25;36.19
74542;BME280;63015;45.378;20.360;2024-02-16T10:11:45;101481.09;;;15.64;36.30
74542;BME280;63015;45.378;20.360;2024-02-16T10:13:59;101478.41;;;15.81;35.24
74542;BME280;63015;45.378;20.360;2024-02-16T10:16:06;101474.78;;;16.04;35.39
74542;BME280;63015;45.378;20.360;2024-02-16T10:18:09;101462.28;;;16.34;35.01
74542;BME280;63015;45.378;20.360;2024-02-16T10:20:09;101463.84;;;16.53;34.99
74542;BME280;63015;45.378;20.360;2024-02-16T10:22:11;101457.63;;;16.62;35.05
74542;BME280;63015;45.378;20.360;2024-02-16T10:24:12;101454.00;;;16.77;34.14
74542;BME280;63015;45.378;20.360;2024-02-16T10:26:14;101462.03;;;16.60;33.30
74542;BME280;63015;45.378;20.360;2024-02-16T10:28:15;101459.56;;;16.41;33.73
74542;BME280;63015;45.378;20.360;2024-02-16T10:30:17;101448.09;;;16.50;34.35